Time;durP1;ratioP1;P1;durP2;ratioP2;P2;SDS_P1;SDS_P2;PMS_P1;PMS_P2;Temp;Humidity;BMP_temperature;BMP_pressure;BME280_temperature;BME280_humidity;BME280_pressure;Samples;Min_cycle;Max_cycle;Signal;HPM_P1;HPM_P2
2022/06/30 00:00:26;;;;;;;;;;;18.70;99.90;;;;;;5033039;28;19971;-74
2022/06/30 00:02:52;;;;;;;;;;;18.70;99.90;;;;;;5033251;28;19924;-74
2022/06/30 00:05:17;;;;;;;;;;;18.50;99.90;;;;;;5031864;28;19921;-74
2022/06/30 00:07:43;;;;;;;;;;;18.40;99.90;;;;;;5028278;28;19921;-74
2022/06/30 00:10:11;;;;;;;;;;;18.20;99.90;;;;;;5030271;28;19914;-73
2022/06/30 00:12:38;;;;;;;;;;;18.20;99.90;;;;;;5032658;28;19921;-74
2022/06/30 00:15:03;;;;;;;;;;;18.30;99.90;;;;;;5032737;28;19913;-74
2022/06/30 00:17:29;;;;;;;;;;;18.40;99.90;;;;;;5030540;28;20319;-73
2022/06/30 00:19:55;;;;;;;;;;;18.30;99.90;;;;;;5030122;28;19917;-74
2022/06/30 00:22:20;;;;;;;;;;;18.30;99.90;;;;;;5029926;28;20322;-74
2022/06/30 00:24:46;;;;;;;;;;;18.20;99.90;;;;;;5030510;28;19917;-75
2022/06/30 00:27:11;;;;;;;;;;;18.20;99.90;;;;;;5034324;28;19964;-74
2022/06/30 00:29:38;;;;;;;;;;;18.20;99.90;;;;;;5037608;28;19909;-74
2022/06/30 00:32:03;;;;;;;;;;;18.10;99.90;;;;;;5036708;28;20003;-74
2022/06/30 00:34:29;;;;;;;;;;;18.00;99.90;;;;;;5034829;28;20016;-74
2022/06/30 00:36:55;;;;;;;;;;;17.90;99.90;;;;;;5037847;28;20391;-74
2022/06/30 00:39:21;;;;;;;;;;;17.80;99.90;;;;;;5037832;28;19909;-73
2022/06/30 00:41:46;;;;;;;;;;;17.70;99.90;;;;;;5035797;28;19921;-74
2022/06/30 00:44:15;;;;;;;;;;;17.60;99.90;;;;;;5035370;28;19921;-74
2022/06/30 00:46:40;;;;;;;;;;;17.60;99.90;;;;;;5036500;28;20003;-74
2022/06/30 00:49:07;;;;;;;;;;;17.70;99.90;;;;;;5036798;28;19948;-73
2022/06/30 00:51:32;;;;;;;;;;;17.70;99.90;;;;;;5036294;28;19913;-75
2022/06/30 00:54:00;;;;;;;;;;;17.70;99.90;;;;;;5035280;28;19913;-74
2022/06/30 00:56:26;;;;;;;;;;;17.60;99.90;;;;;;5035542;28;20008;-74
2022/06/30 00:58:53;;;;;;;;;;;17.60;99.90;;;;;;5029115;28;19913;-74
2022/06/30 01:01:19;;;;;;;;;;;17.50;99.90;;;;;;5036342;28;20308;-74
2022/06/30 01:03:45;;;;;;;;;;;17.50;99.90;;;;;;5035082;28;19917;-74
2022/06/30 01:06:10;;;;;;;;;;;17.40;99.90;;;;;;5036652;28;19917;-74
2022/06/30 01:08:36;;;;;;;;;;;17.40;99.90;;;;;;5037349;28;19913;-73
2022/06/30 01:13:47;;;;;;;;;;;17.40;99.90;;;;;;5036863;28;20323;-74
2022/06/30 01:16:12;;;;;;;;;;;17.40;99.90;;;;;;5036018;28;19932;-74
2022/06/30 01:18:38;;;;;;;;;;;17.40;99.90;;;;;;5030009;28;20296;-74
2022/06/30 01:21:04;;;;;;;;;;;17.40;99.90;;;;;;5029400;28;19924;-74
2022/06/30 01:23:29;;;;;;;;;;;17.40;99.90;;;;;;5030628;28;19996;-74
2022/06/30 01:25:55;;;;;;;;;;;17.50;99.90;;;;;;5032327;28;19913;-73
2022/06/30 01:28:20;;;;;;;;;;;17.50;99.90;;;;;;5030677;28;19956;-74
2022/06/30 01:30:46;;;;;;;;;;;17.50;99.90;;;;;;5034306;28;19921;-74
2022/06/30 01:33:12;;;;;;;;;;;17.50;99.90;;;;;;5035710;28;19921;-74
2022/06/30 01:35:38;;;;;;;;;;;17.50;99.90;;;;;;5034089;28;20000;-74
2022/06/30 01:38:04;;;;;;;;;;;17.60;99.90;;;;;;5030123;28;20342;-74
2022/06/30 01:40:33;;;;;;;;;;;17.70;99.90;;;;;;5036928;28;19963;-74
2022/06/30 01:42:59;;;;;;;;;;;17.70;99.90;;;;;;5036119;28;19913;-73
2022/06/30 01:45:25;;;;;;;;;;;17.80;99.90;;;;;;5034980;28;19917;-73
2022/06/30 01:47:53;;;;;;;;;;;17.90;99.90;;;;;;5035677;28;19917;-74
2022/06/30 01:50:23;;;;;;;;;;;17.90;99.90;;;;;;5035842;28;19991;-77
2022/06/30 01:52:49;;;;;;;;;;;18.00;99.90;;;;;;5033653;28;19909;-75
2022/06/30 01:55:15;;;;;;;;;;;18.00;99.90;;;;;;5047574;28;19917;-74
2022/06/30 01:57:41;;;;;;;;;;;18.00;99.90;;;;;;5036036;28;19925;-74
2022/06/30 02:00:09;;;;;;;;;;;18.00;99.90;;;;;;5035865;28;19917;-74
2022/06/30 02:02:35;;;;;;;;;;;17.90;99.90;;;;;;5035429;28;20315;-74
2022/06/30 02:05:00;;;;;;;;;;;17.90;99.90;;;;;;5035338;28;19945;-74
2022/06/30 02:07:26;;;;;;;;;;;17.80;99.90;;;;;;5034729;28;20220;-75
2022/06/30 02:09:51;;;;;;;;;;;17.90;99.90;;;;;;5036023;28;20219;-74
2022/06/30 02:15:05;;;;;;;;;;;18.00;99.90;;;;;;5035033;28;19924;-75
2022/06/30 02:17:31;;;;;;;;;;;18.20;99.90;;;;;;5034623;28;19966;-74
2022/06/30 02:19:57;;;;;;;;;;;18.30;99.90;;;;;;5036450;28;19994;-76
2022/06/30 02:22:22;;;;;;;;;;;18.50;99.90;;;;;;5067994;28;19917;-77
2022/06/30 02:24:48;;;;;;;;;;;18.50;99.90;;;;;;5034105;28;19913;-76
2022/06/30 02:27:14;;;;;;;;;;;18.60;99.90;;;;;;5030937;28;19917;-73
2022/06/30 02:29:39;;;;;;;;;;;18.60;99.90;;;;;;5032316;28;19923;-74
2022/06/30 02:32:05;;;;;;;;;;;18.70;99.90;;;;;;5034737;28;20016;-77
2022/06/30 02:34:31;;;;;;;;;;;18.70;99.90;;;;;;5035291;28;19945;-76
2022/06/30 02:36:56;;;;;;;;;;;18.60;99.90;;;;;;5066461;28;19967;-78
2022/06/30 02:39:22;;;;;;;;;;;18.60;99.90;;;;;;5036163;28;19916;-78
2022/06/30 02:41:48;;;;;;;;;;;18.60;99.90;;;;;;5035150;28;20031;-81
2022/06/30 02:44:13;;;;;;;;;;;18.40;99.90;;;;;;5034458;28;20220;-77
2022/06/30 02:46:39;;;;;;;;;;;18.30;99.90;;;;;;5032140;28;19963;-76
2022/06/30 02:49:05;;;;;;;;;;;18.10;99.90;;;;;;5025930;28;20351;-76
2022/06/30 02:51:30;;;;;;;;;;;18.00;99.90;;;;;;5029670;28;19914;-78
2022/06/30 02:53:56;;;;;;;;;;;17.90;99.90;;;;;;5032901;28;19917;-76
2022/06/30 02:56:22;;;;;;;;;;;17.90;99.90;;;;;;5033776;28;19940;-76
2022/06/30 02:58:48;;;;;;;;;;;17.80;99.90;;;;;;5029333;28;19909;-75
2022/06/30 03:01:15;;;;;;;;;;;17.80;99.90;;;;;;5035089;28;19920;-74
2022/06/30 03:03:40;;;;;;;;;;;17.80;99.90;;;;;;5034413;28;19917;-75
2022/06/30 03:06:06;;;;;;;;;;;17.80;99.90;;;;;;5035218;28;19917;-76
2022/06/30 03:08:32;;;;;;;;;;;17.70;99.90;;;;;;5034075;28;20052;-75
2022/06/30 03:10:57;;;;;;;;;;;17.60;99.90;;;;;;5030634;28;20373;-76
2022/06/30 03:13:23;;;;;;;;;;;17.70;99.90;;;;;;5033994;28;19909;-74
2022/06/30 03:15:50;;;;;;;;;;;17.60;99.90;;;;;;5035058;28;19920;-75
2022/06/30 03:18:15;;;;;;;;;;;17.40;99.90;;;;;;5031883;28;20027;-74
2022/06/30 03:20:41;;;;;;;;;;;17.40;99.90;;;;;;5032485;28;19940;-75
2022/06/30 03:23:07;;;;;;;;;;;17.50;99.90;;;;;;5033276;28;19917;-74
2022/06/30 03:25:32;;;;;;;;;;;17.40;99.90;;;;;;5034081;28;19920;-75
2022/06/30 03:27:58;;;;;;;;;;;17.50;99.90;;;;;;5026319;28;20378;-76
2022/06/30 03:30:23;;;;;;;;;;;17.60;99.90;;;;;;5035189;28;20474;-74
2022/06/30 03:32:49;;;;;;;;;;;17.60;99.90;;;;;;5032566;28;19967;-75
2022/06/30 03:35:14;;;;;;;;;;;17.60;99.90;;;;;;5034169;28;20277;-78
2022/06/30 03:37:40;;;;;;;;;;;17.60;99.90;;;;;;5033766;28;19955;-75
2022/06/30 03:40:06;;;;;;;;;;;17.80;99.90;;;;;;5033785;28;20148;-75
2022/06/30 03:42:31;;;;;;;;;;;17.90;99.90;;;;;;5033864;28;19917;-76
2022/06/30 03:44:57;;;;;;;;;;;17.90;99.90;;;;;;5031771;28;19921;-74
2022/06/30 03:47:22;;;;;;;;;;;17.90;99.90;;;;;;5033602;28;20251;-74
2022/06/30 03:49:48;;;;;;;;;;;17.80;99.90;;;;;;5033880;28;19913;-75
2022/06/30 03:52:13;;;;;;;;;;;17.70;99.90;;;;;;5017279;28;20015;-75
2022/06/30 03:54:39;;;;;;;;;;;17.70;99.90;;;;;;5033500;28;20334;-75
2022/06/30 03:57:05;;;;;;;;;;;17.60;99.90;;;;;;5032114;28;19975;-76
2022/06/30 03:59:30;;;;;;;;;;;17.70;99.90;;;;;;5034182;28;20220;-75
2022/06/30 04:01:56;;;;;;;;;;;17.70;99.90;;;;;;5033656;28;19928;-75
2022/06/30 04:04:21;;;;;;;;;;;17.70;99.90;;;;;;5038730;28;20324;-75
2022/06/30 04:06:47;;;;;;;;;;;17.60;99.90;;;;;;5036198;28;19920;-75
2022/06/30 04:09:13;;;;;;;;;;;17.60;99.90;;;;;;5039033;28;19959;-74
2022/06/30 04:11:38;;;;;;;;;;;17.60;99.90;;;;;;5036773;28;19921;-75
2022/06/30 04:14:04;;;;;;;;;;;17.60;99.90;;;;;;5038203;28;19924;-74
2022/06/30 04:16:29;;;;;;;;;;;17.50;99.90;;;;;;5037930;28;20310;-74
2022/06/30 04:18:55;;;;;;;;;;;17.60;99.90;;;;;;5036035;28;20347;-75
2022/06/30 04:21:21;;;;;;;;;;;17.60;99.90;;;;;;5035365;28;19913;-75
2022/06/30 04:23:46;;;;;;;;;;;17.60;99.90;;;;;;5037810;28;19928;-75
2022/06/30 04:26:12;;;;;;;;;;;17.60;99.90;;;;;;5036916;28;19926;-75
2022/06/30 04:28:38;;;;;;;;;;;17.50;99.90;;;;;;5030274;28;19913;-75
2022/06/30 04:33:47;;;;;;;;;;;17.50;99.90;;;;;;5026909;28;20216;-75
2022/06/30 04:36:14;;;;;;;;;;;17.60;99.90;;;;;;5029013;28;19909;-75
2022/06/30 04:38:39;;;;;;;;;;;17.60;99.90;;;;;;5037700;28;19913;-74
2022/06/30 04:43:49;;;;;;;;;;;17.70;99.90;;;;;;5037800;28;20327;-75
2022/06/30 04:46:15;;;;;;;;;;;17.80;99.90;;;;;;5029659;28;20000;-75
2022/06/30 04:48:40;;;;;;;;;;;17.80;99.90;;;;;;5023599;28;19995;-75
2022/06/30 04:51:07;;;;;;;;;;;17.80;99.90;;;;;;5033254;28;20209;-75
2022/06/30 04:53:33;;;;;;;;;;;17.90;99.90;;;;;;5032067;28;19956;-74
2022/06/30 04:55:59;;;;;;;;;;;17.90;99.90;;;;;;5034162;28;19968;-75
2022/06/30 04:58:24;;;;;;;;;;;18.00;99.90;;;;;;5032776;28;19922;-75
2022/06/30 05:00:50;;;;;;;;;;;18.00;99.90;;;;;;5032849;28;19932;-75
2022/06/30 05:03:15;;;;;;;;;;;18.10;99.90;;;;;;5031300;28;19921;-75
2022/06/30 05:05:41;;;;;;;;;;;18.10;99.90;;;;;;5031704;28;19913;-75
2022/06/30 05:08:07;;;;;;;;;;;18.20;99.90;;;;;;5031285;28;19917;-75
2022/06/30 05:10:32;;;;;;;;;;;18.30;99.90;;;;;;5030616;28;20224;-75
2022/06/30 05:12:58;;;;;;;;;;;18.30;99.90;;;;;;5034409;28;19936;-75
2022/06/30 05:15:23;;;;;;;;;;;18.40;99.90;;;;;;5031920;28;19920;-75
2022/06/30 05:17:49;;;;;;;;;;;18.50;99.90;;;;;;5033050;28;20038;-75
2022/06/30 05:20:14;;;;;;;;;;;18.60;99.90;;;;;;5033258;28;19924;-75
2022/06/30 05:22:40;;;;;;;;;;;18.70;99.90;;;;;;5047527;28;20063;-75
2022/06/30 05:27:50;;;;;;;;;;;19.00;99.90;;;;;;5032106;28;19975;-76
2022/06/30 05:30:16;;;;;;;;;;;19.00;99.90;;;;;;5033240;28;20670;-76
2022/06/30 05:32:42;;;;;;;;;;;19.10;99.90;;;;;;5032118;28;19928;-76
2022/06/30 05:35:08;;;;;;;;;;;19.20;99.90;;;;;;5030925;28;20201;-75
2022/06/30 05:37:33;;;;;;;;;;;19.20;99.90;;;;;;5034544;28;19924;-76
2022/06/30 05:39:59;;;;;;;;;;;19.30;99.90;;;;;;5031256;28;20315;-75
2022/06/30 05:42:25;;;;;;;;;;;19.30;99.90;;;;;;5032952;28;19925;-75
2022/06/30 05:44:50;;;;;;;;;;;19.40;99.90;;;;;;5032764;28;19928;-76
2022/06/30 05:47:16;;;;;;;;;;;19.30;99.90;;;;;;5033763;28;19960;-74
2022/06/30 05:49:41;;;;;;;;;;;19.40;99.90;;;;;;5024064;28;19960;-77
2022/06/30 05:52:07;;;;;;;;;;;19.40;99.90;;;;;;5034973;28;19913;-74
2022/06/30 05:54:32;;;;;;;;;;;19.40;99.90;;;;;;5023438;28;19932;-74
2022/06/30 05:56:58;;;;;;;;;;;19.50;99.90;;;;;;5031340;28;19959;-76
2022/06/30 05:59:23;;;;;;;;;;;19.40;99.90;;;;;;5033432;28;19920;-75
2022/06/30 06:01:49;;;;;;;;;;;19.50;99.90;;;;;;5034687;28;19921;-74
2022/06/30 06:04:15;;;;;;;;;;;19.50;99.90;;;;;;5034446;28;19960;-75
2022/06/30 06:06:40;;;;;;;;;;;19.50;99.90;;;;;;5032281;28;19913;-76
2022/06/30 06:09:06;;;;;;;;;;;19.50;99.90;;;;;;5032642;28;19921;-76
2022/06/30 06:11:32;;;;;;;;;;;19.50;99.90;;;;;;5031897;28;20003;-75
2022/06/30 06:13:58;;;;;;;;;;;19.50;99.90;;;;;;5032781;28;19913;-78
2022/06/30 06:16:24;;;;;;;;;;;19.50;99.90;;;;;;5032363;28;19968;-76
2022/06/30 06:18:49;;;;;;;;;;;19.50;99.90;;;;;;5029926;28;20312;-76
2022/06/30 06:21:15;;;;;;;;;;;19.50;99.90;;;;;;5031967;28;20215;-76
2022/06/30 06:23:41;;;;;;;;;;;19.50;99.90;;;;;;5014440;28;19929;-76
2022/06/30 06:26:06;;;;;;;;;;;19.50;99.90;;;;;;5034133;28;20213;-79
2022/06/30 06:31:16;;;;;;;;;;;19.50;99.90;;;;;;5031209;28;20008;-75
2022/06/30 06:33:44;;;;;;;;;;;19.50;99.90;;;;;;5033973;28;20011;-79
2022/06/30 06:36:11;;;;;;;;;;;19.50;99.90;;;;;;5047850;28;20005;-79
2022/06/30 06:38:36;;;;;;;;;;;19.50;99.90;;;;;;5033403;28;19917;-78
2022/06/30 06:41:02;;;;;;;;;;;19.60;99.90;;;;;;5028325;28;19967;-79
2022/06/30 06:43:28;;;;;;;;;;;19.60;99.90;;;;;;5030615;28;19918;-79
2022/06/30 06:45:53;;;;;;;;;;;19.60;99.90;;;;;;5033862;28;19952;-75
2022/06/30 06:48:19;;;;;;;;;;;19.60;99.90;;;;;;5029518;28;19918;-78
2022/06/30 06:50:44;;;;;;;;;;;19.60;99.90;;;;;;5033700;28;20008;-77
2022/06/30 06:53:10;;;;;;;;;;;19.50;99.90;;;;;;5012347;28;19924;-78
2022/06/30 06:55:35;;;;;;;;;;;19.50;99.90;;;;;;5030588;28;20045;-76
2022/06/30 06:58:01;;;;;;;;;;;19.50;99.90;;;;;;5025348;28;20028;-76
2022/06/30 07:00:27;;;;;;;;;;;19.60;99.90;;;;;;5033381;28;19910;-79
2022/06/30 07:02:53;;;;;;;;;;;19.60;99.90;;;;;;5030098;28;20673;-76
2022/06/30 07:05:18;;;;;;;;;;;19.60;99.90;;;;;;5025831;28;20011;-78
2022/06/30 07:07:44;;;;;;;;;;;19.60;99.90;;;;;;5028984;28;19917;-78
2022/06/30 07:10:09;;;;;;;;;;;19.60;99.90;;;;;;5025512;28;19920;-77
2022/06/30 07:12:35;;;;;;;;;;;19.60;99.90;;;;;;5027720;28;19922;-78
2022/06/30 07:15:01;;;;;;;;;;;19.60;99.90;;;;;;5062267;28;20428;-79
2022/06/30 07:17:26;;;;;;;;;;;19.80;99.90;;;;;;5030464;28;19952;-77
2022/06/30 07:19:52;;;;;;;;;;;19.80;99.90;;;;;;5035311;28;19913;-77
2022/06/30 07:22:17;;;;;;;;;;;19.80;99.90;;;;;;5029848;28;20008;-78
2022/06/30 07:24:43;;;;;;;;;;;19.80;99.90;;;;;;5034020;28;19913;-78
2022/06/30 07:27:09;;;;;;;;;;;19.80;99.90;;;;;;5033620;28;19924;-77
2022/06/30 07:29:34;;;;;;;;;;;19.70;99.90;;;;;;5027034;28;19921;-77
2022/06/30 07:32:00;;;;;;;;;;;19.80;99.90;;;;;;5033469;28;20324;-77
2022/06/30 07:34:25;;;;;;;;;;;19.80;99.90;;;;;;5033015;28;19959;-79
2022/06/30 07:36:51;;;;;;;;;;;19.90;99.90;;;;;;5036246;28;19913;-75
2022/06/30 07:39:16;;;;;;;;;;;20.00;99.90;;;;;;5040342;28;19917;-80
2022/06/30 07:41:42;;;;;;;;;;;20.10;99.90;;;;;;5039191;28;19963;-77
2022/06/30 07:44:08;;;;;;;;;;;20.30;99.90;;;;;;5040216;28;19924;-77
2022/06/30 07:46:34;;;;;;;;;;;20.40;99.90;;;;;;5036041;28;19913;-77
2022/06/30 07:48:59;;;;;;;;;;;20.40;99.90;;;;;;5032736;28;20266;-78
2022/06/30 07:51:25;;;;;;;;;;;20.60;99.90;;;;;;5040797;28;19928;-79
2022/06/30 07:53:50;;;;;;;;;;;20.70;99.90;;;;;;5039845;28;19921;-77
2022/06/30 07:56:16;;;;;;;;;;;20.80;99.90;;;;;;5035809;28;19928;-77
2022/06/30 07:58:42;;;;;;;;;;;21.00;99.90;;;;;;5033345;28;20300;-77
2022/06/30 08:01:08;;;;;;;;;;;21.20;99.90;;;;;;5029016;28;19921;-77
2022/06/30 08:03:33;;;;;;;;;;;21.60;99.90;;;;;;5038490;28;19917;-79
2022/06/30 08:05:59;;;;;;;;;;;21.70;99.90;;;;;;5039939;28;19917;-77
2022/06/30 08:08:24;;;;;;;;;;;21.80;99.90;;;;;;5041545;28;19913;-79
2022/06/30 08:10:50;;;;;;;;;;;22.10;99.90;;;;;;5029112;28;19925;-78
2022/06/30 08:13:16;;;;;;;;;;;22.50;99.90;;;;;;5033838;28;19956;-78
2022/06/30 08:15:41;;;;;;;;;;;22.90;99.90;;;;;;5035879;28;19971;-78
2022/06/30 08:18:07;;;;;;;;;;;23.00;99.90;;;;;;5038985;28;19921;-77
2022/06/30 08:20:33;;;;;;;;;;;23.40;99.90;;;;;;5039519;28;19917;-79
2022/06/30 08:22:59;;;;;;;;;;;23.60;99.90;;;;;;5038415;28;20629;-78
2022/06/30 08:25:27;;;;;;;;;;;23.90;99.90;;;;;;5037226;28;20284;-77
2022/06/30 08:27:53;;;;;;;;;;;24.20;99.90;;;;;;5037623;28;19920;-78
2022/06/30 08:30:19;;;;;;;;;;;24.00;99.90;;;;;;5019257;28;19928;-82
2022/06/30 08:32:44;;;;;;;;;;;23.90;99.90;;;;;;5038670;28;20301;-81
2022/06/30 08:35:10;;;;;;;;;;;23.90;99.90;;;;;;5040114;28;19913;-78
2022/06/30 08:37:36;;;;;;;;;;;24.00;99.90;;;;;;5034805;28;19957;-76
2022/06/30 08:42:46;;;;;;;;;;;24.80;99.90;;;;;;5036171;28;20032;-77
2022/06/30 08:45:17;;;;;;;;;;;24.80;99.90;;;;;;5037854;28;19913;-78
2022/06/30 08:47:44;;;;;;;;;;;24.90;99.90;;;;;;5038044;28;19994;-85
2022/06/30 08:50:10;;;;;;;;;;;24.70;99.90;;;;;;5034936;28;19917;-78
2022/06/30 08:52:41;;;;;;;;;;;24.40;99.90;;;;;;5035104;28;19919;-78
2022/06/30 08:55:08;;;;;;;;;;;24.20;99.90;;;;;;5034224;28;19919;-80
2022/06/30 08:57:34;;;;;;;;;;;24.00;99.90;;;;;;5033895;28;20012;-84
2022/06/30 08:59:59;;;;;;;;;;;24.00;99.90;;;;;;5034468;28;20000;-76
2022/06/30 09:02:25;;;;;;;;;;;24.40;99.90;;;;;;5034208;28;19917;-76
2022/06/30 09:04:51;;;;;;;;;;;24.70;99.90;;;;;;5034477;28;19975;-76
2022/06/30 09:07:16;;;;;;;;;;;25.20;99.90;;;;;;5025987;28;19921;-80
2022/06/30 09:09:42;;;;;;;;;;;25.30;99.90;;;;;;5035194;28;19955;-79
2022/06/30 09:12:18;;;;;;;;;;;25.10;99.90;;;;;;5026090;28;19925;-76
2022/06/30 09:14:48;;;;;;;;;;;25.10;99.90;;;;;;5035285;28;19913;-81
2022/06/30 09:17:18;;;;;;;;;;;25.00;99.90;;;;;;5035419;28;20024;-77
2022/06/30 09:19:52;;;;;;;;;;;25.10;99.90;;;;;;5035126;28;19921;-77
2022/06/30 09:22:18;;;;;;;;;;;25.00;99.30;;;;;;5031069;28;19917;-77
2022/06/30 09:24:44;;;;;;;;;;;25.30;99.80;;;;;;5031993;28;20252;-76
2022/06/30 09:27:19;;;;;;;;;;;25.40;99.90;;;;;;5034344;28;19921;-77
2022/06/30 09:29:52;;;;;;;;;;;25.70;99.90;;;;;;5033788;28;19921;-76
2022/06/30 09:32:18;;;;;;;;;;;26.10;99.20;;;;;;5035251;28;19913;-77
2022/06/30 09:34:44;;;;;;;;;;;26.50;99.80;;;;;;5034253;28;19927;-77
2022/06/30 09:37:18;;;;;;;;;;;26.90;97.20;;;;;;5033052;28;20019;-78
2022/06/30 09:39:44;;;;;;;;;;;27.10;96.30;;;;;;5032427;28;19913;-77
2022/06/30 09:42:10;;;;;;;;;;;27.20;97.00;;;;;;5032771;28;19921;-78
2022/06/30 09:44:36;;;;;;;;;;;27.10;96.00;;;;;;5033885;28;19917;-76
2022/06/30 09:47:01;;;;;;;;;;;27.00;97.60;;;;;;5033983;28;20004;-78
2022/06/30 09:49:33;;;;;;;;;;;27.30;96.40;;;;;;5035120;28;20323;-80
2022/06/30 09:52:00;;;;;;;;;;;27.60;97.60;;;;;;5033711;28;19931;-84
2022/06/30 09:54:26;;;;;;;;;;;28.00;96.20;;;;;;5033920;28;19979;-79
2022/06/30 09:57:07;;;;;;;;;;;28.00;95.10;;;;;;5035077;28;21831;-82
2022/06/30 09:59:33;;;;;;;;;;;28.00;95.30;;;;;;5033973;28;20271;-75
2022/06/30 10:01:59;;;;;;;;;;;28.10;96.10;;;;;;5011927;28;19928;-81
2022/06/30 10:04:25;;;;;;;;;;;28.10;94.80;;;;;;5032095;28;19913;-83
2022/06/30 10:06:52;;;;;;;;;;;28.20;94.20;;;;;;5033990;28;19914;-83
2022/06/30 10:09:17;;;;;;;;;;;27.80;95.20;;;;;;5033313;28;19983;-77
2022/06/30 10:11:45;;;;;;;;;;;27.70;95.60;;;;;;5032314;28;20308;-76
2022/06/30 10:14:11;;;;;;;;;;;27.80;94.30;;;;;;5032717;28;19966;-80
2022/06/30 10:16:40;;;;;;;;;;;28.20;96.00;;;;;;5034342;28;20251;-80
2022/06/30 10:19:08;;;;;;;;;;;28.70;95.40;;;;;;5033815;28;19920;-84
2022/06/30 10:21:35;;;;;;;;;;;29.20;94.40;;;;;;5033534;28;20193;-79
2022/06/30 10:24:01;;;;;;;;;;;28.90;93.70;;;;;;5034230;28;19921;-86
2022/06/30 10:29:11;;;;;;;;;;;28.50;93.90;;;;;;5034918;28;19962;-83
2022/06/30 10:31:45;;;;;;;;;;;28.10;93.90;;;;;;5034761;28;20012;-80
2022/06/30 10:34:33;;;;;;;;;;;27.90;95.70;;;;;;5032948;28;19920;-79
2022/06/30 10:37:16;;;;;;;;;;;28.00;94.10;;;;;;5033792;28;19917;-78
2022/06/30 10:40:09;;;;;;;;;;;27.80;96.80;;;;;;5031970;28;19920;-81
2022/06/30 10:42:41;;;;;;;;;;;27.80;95.50;;;;;;5016253;28;19984;-77
2022/06/30 10:45:26;;;;;;;;;;;27.40;96.10;;;;;;5016419;28;19960;-79
2022/06/30 10:48:05;;;;;;;;;;;27.10;94.60;;;;;;5009940;28;20205;-81
2022/06/30 10:50:32;;;;;;;;;;;27.10;95.20;;;;;;5034103;28;19913;-80
2022/06/30 10:52:58;;;;;;;;;;;27.50;97.20;;;;;;5031718;28;20028;-80
2022/06/30 10:55:23;;;;;;;;;;;27.60;97.30;;;;;;5033356;28;20044;-77
2022/06/30 10:57:59;;;;;;;;;;;27.80;96.70;;;;;;5031710;28;19928;-78
2022/06/30 11:01:00;;;;;;;;;;;27.60;95.20;;;;;;5032848;28;19921;-81
2022/06/30 11:05:58;;;;;;;;;;;27.90;95.10;;;;;;5031207;28;19925;-79
2022/06/30 11:08:35;;;;;;;;;;;27.80;95.10;;;;;;5030610;28;20016;-76
2022/06/30 11:11:19;;;;;;;;;;;27.70;95.40;;;;;;5030912;28;19928;-75
2022/06/30 11:13:45;;;;;;;;;;;27.70;94.70;;;;;;5030807;28;19913;-77
2022/06/30 11:16:15;;;;;;;;;;;27.70;96.30;;;;;;5031986;28;19913;-76
2022/06/30 11:18:40;;;;;;;;;;;27.80;97.20;;;;;;5023106;28;19913;-78
2022/06/30 11:21:06;;;;;;;;;;;27.40;95.60;;;;;;5031001;28;20380;-77
2022/06/30 11:23:39;;;;;;;;;;;27.20;96.20;;;;;;5031411;28;19939;-79
2022/06/30 11:28:51;;;;;;;;;;;27.00;96.70;;;;;;5031655;28;19952;-75
2022/06/30 11:31:36;;;;;;;;;;;26.80;95.70;;;;;;5031438;28;20167;-77
2022/06/30 11:34:04;;;;;;;;;;;26.60;95.30;;;;;;5030847;28;20189;-75
2022/06/30 11:36:30;;;;;;;;;;;26.60;97.30;;;;;;5031224;28;20044;-75
2022/06/30 11:38:57;;;;;;;;;;;26.30;96.20;;;;;;5031528;28;19959;-84
2022/06/30 11:44:12;;;;;;;;;;;25.70;96.70;;;;;;5033339;28;19955;-77
2022/06/30 11:46:47;;;;;;;;;;;25.10;97.40;;;;;;5032465;28;20015;-77
2022/06/30 11:49:12;;;;;;;;;;;25.00;97.90;;;;;;5021937;28;20008;-76
2022/06/30 11:51:38;;;;;;;;;;;25.10;97.80;;;;;;5033493;28;19917;-77
2022/06/30 11:54:05;;;;;;;;;;;25.00;97.80;;;;;;5032753;28;19917;-77
2022/06/30 11:56:43;;;;;;;;;;;25.10;97.80;;;;;;5025065;28;19913;-77
2022/06/30 11:59:08;;;;;;;;;;;25.20;97.70;;;;;;5032271;28;19955;-79
2022/06/30 12:01:34;;;;;;;;;;;25.30;98.00;;;;;;5033817;28;19956;-78
2022/06/30 12:04:11;;;;;;;;;;;25.00;97.80;;;;;;5032387;28;19967;-75
2022/06/30 12:06:37;;;;;;;;;;;24.60;99.90;;;;;;5032842;28;19913;-75
2022/06/30 12:09:02;;;;;;;;;;;24.30;98.10;;;;;;5033373;28;19924;-76
2022/06/30 12:11:30;;;;;;;;;;;24.00;97.90;;;;;;5033213;28;20016;-77
2022/06/30 12:13:56;;;;;;;;;;;24.00;99.70;;;;;;5030459;28;19914;-76
2022/06/30 12:16:21;;;;;;;;;;;23.90;98.80;;;;;;5031603;28;19913;-76
2022/06/30 12:18:47;;;;;;;;;;;23.90;98.70;;;;;;5031964;28;19921;-77
2022/06/30 12:21:12;;;;;;;;;;;23.80;98.60;;;;;;5029769;28;19920;-77
2022/06/30 12:23:39;;;;;;;;;;;23.70;99.20;;;;;;5032498;28;20003;-75
2022/06/30 12:26:06;;;;;;;;;;;23.50;99.00;;;;;;5034535;28;19921;-77
2022/06/30 12:28:48;;;;;;;;;;;23.40;99.40;;;;;;5033768;28;20358;-78
2022/06/30 12:31:26;;;;;;;;;;;23.30;99.70;;;;;;5036627;28;19920;-77
2022/06/30 12:33:53;;;;;;;;;;;23.30;99.90;;;;;;5035855;28;19932;-76
2022/06/30 12:36:18;;;;;;;;;;;23.30;99.90;;;;;;5036059;28;20419;-76
2022/06/30 12:38:44;;;;;;;;;;;23.20;99.90;;;;;;5034736;28;19917;-78
2022/06/30 12:41:13;;;;;;;;;;;23.30;99.80;;;;;;5034026;28;19921;-78
2022/06/30 12:43:47;;;;;;;;;;;23.00;99.90;;;;;;5034291;28;20315;-77
2022/06/30 12:46:13;;;;;;;;;;;23.00;99.90;;;;;;5034632;28;19913;-76
2022/06/30 12:48:50;;;;;;;;;;;22.80;99.90;;;;;;5036256;28;19924;-74
2022/06/30 12:51:36;;;;;;;;;;;22.90;99.90;;;;;;5034936;28;19956;-77
2022/06/30 12:54:06;;;;;;;;;;;23.00;99.90;;;;;;5064072;28;20320;-78
2022/06/30 12:56:32;;;;;;;;;;;23.20;99.90;;;;;;5041463;28;19914;-76
2022/06/30 12:59:08;;;;;;;;;;;23.20;99.90;;;;;;5034457;28;19972;-75
2022/06/30 13:01:35;;;;;;;;;;;23.10;99.90;;;;;;5034628;28;19913;-77
2022/06/30 13:04:04;;;;;;;;;;;23.00;99.90;;;;;;5034650;28;19917;-79
2022/06/30 13:06:34;;;;;;;;;;;22.90;99.90;;;;;;5025677;28;20067;-77
2022/06/30 13:09:05;;;;;;;;;;;22.90;99.90;;;;;;5033434;28;20256;-78
2022/06/30 13:11:31;;;;;;;;;;;23.00;99.90;;;;;;5033727;28;19925;-78
2022/06/30 13:13:57;;;;;;;;;;;22.90;99.90;;;;;;5035060;28;19913;-77
2022/06/30 13:16:23;;;;;;;;;;;22.60;99.90;;;;;;5035793;28;19917;-78
2022/06/30 13:18:48;;;;;;;;;;;22.40;99.90;;;;;;5033783;28;19917;-77
2022/06/30 13:21:18;;;;;;;;;;;22.20;99.90;;;;;;5034981;28;19921;-76
2022/06/30 13:23:43;;;;;;;;;;;22.30;99.90;;;;;;5034858;28;19917;-79
2022/06/30 13:26:09;;;;;;;;;;;22.70;99.90;;;;;;5034290;28;19933;-77
2022/06/30 13:28:35;;;;;;;;;;;23.00;99.90;;;;;;5034674;28;19913;-78
2022/06/30 13:31:00;;;;;;;;;;;22.90;99.90;;;;;;5034457;28;19923;-77
2022/06/30 13:33:26;;;;;;;;;;;22.70;99.90;;;;;;5034357;28;19921;-76
2022/06/30 13:35:51;;;;;;;;;;;22.70;99.90;;;;;;5033957;28;19952;-77
2022/06/30 13:38:17;;;;;;;;;;;22.70;99.90;;;;;;5034194;28;19916;-78
2022/06/30 13:40:43;;;;;;;;;;;22.60;99.90;;;;;;5034737;28;19992;-79
2022/06/30 13:43:08;;;;;;;;;;;22.60;99.90;;;;;;5033435;28;19967;-77
2022/06/30 13:45:34;;;;;;;;;;;22.50;99.90;;;;;;5035405;28;19921;-78
2022/06/30 13:47:59;;;;;;;;;;;22.60;99.90;;;;;;5033731;28;20216;-77
2022/06/30 13:50:25;;;;;;;;;;;22.60;99.90;;;;;;5033292;28;20004;-79
2022/06/30 13:52:50;;;;;;;;;;;22.60;99.90;;;;;;5034317;28;19940;-75
2022/06/30 13:55:16;;;;;;;;;;;22.40;99.90;;;;;;5034320;28;20017;-74
2022/06/30 13:57:41;;;;;;;;;;;22.00;99.90;;;;;;5034026;28;19921;-79
2022/06/30 14:00:07;;;;;;;;;;;21.70;99.90;;;;;;5034518;28;19917;-75
2022/06/30 14:02:33;;;;;;;;;;;21.60;99.90;;;;;;5033117;28;19949;-76
2022/06/30 14:05:02;;;;;;;;;;;21.70;99.90;;;;;;5034342;28;19964;-76
2022/06/30 14:07:27;;;;;;;;;;;21.70;99.90;;;;;;5016284;28;19952;-75
2022/06/30 14:09:53;;;;;;;;;;;21.70;99.90;;;;;;5033588;28;19959;-75
2022/06/30 14:12:19;;;;;;;;;;;21.70;99.90;;;;;;5033422;28;19921;-75
2022/06/30 14:14:45;;;;;;;;;;;21.70;99.90;;;;;;5035904;28;19920;-81
2022/06/30 14:17:10;;;;;;;;;;;21.60;99.90;;;;;;5036077;28;19909;-77
2022/06/30 14:19:36;;;;;;;;;;;21.50;99.90;;;;;;5035335;28;20293;-77
2022/06/30 14:22:01;;;;;;;;;;;21.50;99.90;;;;;;5034882;28;20012;-77
2022/06/30 14:24:27;;;;;;;;;;;21.60;99.90;;;;;;5035571;28;19913;-76
2022/06/30 14:26:53;;;;;;;;;;;21.60;99.90;;;;;;5033085;28;19909;-78
2022/06/30 14:29:19;;;;;;;;;;;21.90;99.90;;;;;;5028731;28;19978;-80
2022/06/30 14:31:44;;;;;;;;;;;22.10;99.90;;;;;;5034010;28;20260;-80
2022/06/30 14:34:10;;;;;;;;;;;21.90;99.90;;;;;;5034665;28;19990;-79
2022/06/30 14:36:36;;;;;;;;;;;21.60;99.90;;;;;;5035434;28;19909;-75
2022/06/30 14:39:02;;;;;;;;;;;21.40;99.90;;;;;;5034689;28;19916;-75
2022/06/30 14:44:12;;;;;;;;;;;21.30;99.90;;;;;;5026401;28;19939;-77
2022/06/30 14:46:38;;;;;;;;;;;21.20;99.90;;;;;;5034488;28;20300;-76